Virtual Airlines Manager

 METAR AND TAF INFORMATION
METAR FOR LEPP
ADDS - METARS form results

(0427 UTC 23 October 2017)
Data provider http://aviationweather.gov/adds/metars/
 
METAR text: LEPP 230400Z 00000KT CAVOK 06/06 Q1027
Conditions at: LEPP (PAMPLONA/NOAIN , ES) observed 0400 UTC 23 October 2017
Temperature: 6.0°C (43°F)
Dewpoint: 6.0°C (43°F) [RH = 100%]
Pressure (altimeter): 30.32 inches Hg (1027.0 mb)
Winds: calm
Visibility: 6 or more miles (10+ km)
Ceiling: ceiling and visibility are OK
Clouds: unknown
Weather: no significant weather observed at this time

METAR text: LEPP 230330Z 00000KT CAVOK 06/06 Q1027
Conditions at: LEPP (PAMPLONA/NOAIN , ES) observed 0330 UTC 23 October 2017
Temperature: 6.0°C (43°F)
Dewpoint: 6.0°C (43°F) [RH = 100%]
Pressure (altimeter): 30.32 inches Hg (1027.0 mb)
Winds: calm
Visibility: 6 or more miles (10+ km)
Ceiling: ceiling and visibility are OK
Clouds: unknown
Weather: no significant weather observed at this time

Forecast for: LEPP (PAMPLONA/NOAIN , ES)
Text: TAF LEPP 230200Z 2303/2403 32005KT 9999 SCT030 TX18/2314Z TN05/2306Z
Forecast period: 0300 UTC 23 October 2017 to 0300 UTC 24 October 2017
Forecast type: FROM: standard forecast or significant change
Winds: from the NW (320 degrees) at 6 MPH (5 knots; 2.6 m/s)
Visibility: 6 or more miles (10+ km)
Clouds: scattered clouds at 3000 feet AGL
Weather: no significant weather forecast for this period
Text: PROB30
Forecast period: 0300 to 0800 UTC 23 October 2017
Forecast type: TEMPORARY: The following changes expected for less than half the time period
Visibility: 0.37 miles (0.60 km)
Weather: BCFG  (patches of fog)
Text: TEMPO 2303/2308 0600 BCFG
Forecast period: 1200 to 1700 UTC 23 October 2017
Forecast type: TEMPORARY: The following changes expected for less than half the time period
Winds: from the NNW (330 degrees) at 20 MPH (17 knots; 8.8 m/s)
Weather: no significant weather forecast for this period

 AIRPORT MAP

 RUNWAY INFORMATION
Runway 15 Runway length 0 ft Runway width 0 ft
Runway elevation 1468 ft Runway displaced threshold 0 ft Runway heading 0
Runway 33 Runway length 0 ft Runway width 0 ft
Runway elevation 1500 ft Runway displaced threshold 0 ft Runway heading 0
Runway 16 Runway length 7241 ft Runway width 148 ft
Runway elevation 1468 ft Runway displaced threshold 0 ft Runway heading 152
Runway 34 Runway length 7241 ft Runway width 148 ft
Runway elevation 1504 ft Runway displaced threshold 984 ft Runway heading 332

 AIRPORT FREQUENCIES
Type APP Name APP Frequency 118.2 MHZ
Type GND Name GND Frequency 121.7 MHZ
Type TWR Name TWR Frequency 118.2 MHZ

 AIRPORT NEAR NAVIGATION AIDS
Type NDB Name Pamplona Frequency 422 KHZ
Type VOR-DME Name Pamplona Frequency 113550 KHZ
Type VOR-DME Name Pamplona Frequency 112300 KHZ



Powered by Virtual Airlines Manager [v2.6.2]